createdAt,value
2023-04-15T00:01:19.836Z,35.50
2023-04-15T00:03:48.544Z,41.93
2023-04-15T00:06:17.060Z,39.67
2023-04-15T00:08:45.201Z,37.37
2023-04-15T00:11:13.541Z,40.37
2023-04-15T00:13:42.704Z,36.07
2023-04-15T00:16:12.330Z,36.53
2023-04-15T00:18:42.227Z,38.30
2023-04-15T00:21:10.574Z,38.13
2023-04-15T00:23:38.780Z,39.33
2023-04-15T00:26:07.434Z,36.27
2023-04-15T00:28:35.600Z,34.97
2023-04-15T00:31:04.882Z,39.40
2023-04-15T00:33:33.393Z,39.10
2023-04-15T00:36:02.871Z,35.37
2023-04-15T00:38:31.048Z,36.90
2023-04-15T00:40:59.524Z,36.57
2023-04-15T00:43:29.684Z,36.57
2023-04-15T00:45:59.873Z,38.50
2023-04-15T00:48:28.436Z,36.60
2023-04-15T00:50:56.770Z,34.57
2023-04-15T00:53:26.450Z,34.23
2023-04-15T00:55:55.212Z,36.80
2023-04-15T00:58:24.025Z,34.03
2023-04-15T01:00:54.630Z,33.23
2023-04-15T01:03:23.076Z,36.83
2023-04-15T01:05:52.930Z,35.23
2023-04-15T01:08:21.127Z,35.47
2023-04-15T01:10:50.721Z,32.67
2023-04-15T01:13:18.845Z,32.67
2023-04-15T01:15:47.206Z,31.30
2023-04-15T01:18:15.596Z,32.90
2023-04-15T01:20:43.775Z,31.30
2023-04-15T01:23:12.112Z,34.00
2023-04-15T01:25:43.074Z,32.87
2023-04-15T01:28:11.288Z,32.37
2023-04-15T01:30:39.777Z,31.27
2023-04-15T01:33:07.904Z,29.07
2023-04-15T01:35:36.374Z,29.27
2023-04-15T01:38:07.757Z,31.10
2023-04-15T01:40:36.561Z,31.57
2023-04-15T01:43:06.132Z,31.33
2023-04-15T01:45:34.281Z,30.27
2023-04-15T01:48:05.810Z,28.30
2023-04-15T01:50:34.095Z,30.70
2023-04-15T01:53:02.234Z,30.27
2023-04-15T01:55:30.896Z,31.70
2023-04-15T01:57:59.059Z,29.87
2023-04-15T02:00:28.567Z,30.93
2023-04-15T02:02:57.050Z,29.33
2023-04-15T02:05:27.754Z,28.10
2023-04-15T02:07:55.906Z,29.50
2023-04-15T02:10:24.196Z,29.37
2023-04-15T02:12:52.428Z,29.60
2023-04-15T02:15:20.824Z,30.17
2023-04-15T02:17:55.331Z,27.20
2023-04-15T02:20:23.632Z,29.30
2023-04-15T02:22:52.270Z,27.43
2023-04-15T02:25:20.996Z,29.80
2023-04-15T02:27:49.340Z,29.37
2023-04-15T02:30:18.644Z,27.47
2023-04-15T02:32:47.160Z,29.60
2023-04-15T02:35:19.139Z,27.80
2023-04-15T02:37:47.271Z,27.20
2023-04-15T02:40:15.631Z,30.17
2023-04-15T02:42:44.312Z,31.77
2023-04-15T02:45:14.758Z,28.77
2023-04-15T02:47:44.497Z,27.57
2023-04-15T02:50:15.129Z,26.33
2023-04-15T02:52:45.842Z,30.07
2023-04-15T02:55:14.120Z,27.10
2023-04-15T02:57:42.703Z,28.30
2023-04-15T03:00:13.435Z,28.40
2023-04-15T03:02:44.332Z,27.37
2023-04-15T03:05:14.067Z,28.10
2023-04-15T03:07:50.062Z,28.57
2023-04-15T03:10:18.510Z,28.03
2023-04-15T03:12:48.152Z,25.90
2023-04-15T03:15:19.833Z,25.73
2023-04-15T03:17:51.257Z,25.13
2023-04-15T03:20:19.740Z,25.47
2023-04-15T03:22:50.919Z,27.17
2023-04-15T03:25:21.608Z,23.90
2023-04-15T03:27:49.836Z,26.97
2023-04-15T03:30:18.687Z,26.73
2023-04-15T03:32:47.511Z,28.53
2023-04-15T03:35:16.449Z,25.67
2023-04-15T03:37:44.760Z,26.50
2023-04-15T03:40:14.536Z,23.63
2023-04-15T03:42:42.736Z,23.83
2023-04-15T03:45:11.901Z,26.57
2023-04-15T03:47:40.080Z,23.73
2023-04-15T03:50:09.235Z,25.43
2023-04-15T03:52:37.730Z,24.50
2023-04-15T03:55:06.653Z,24.77
2023-04-15T03:57:38.961Z,22.80
2023-04-15T04:00:09.298Z,22.97
2023-04-15T04:02:40.206Z,24.77
2023-04-15T04:05:09.215Z,23.53
2023-04-15T04:07:37.601Z,23.20
2023-04-15T04:10:06.619Z,22.40
2023-04-15T04:12:36.320Z,24.07
2023-04-15T04:15:04.863Z,21.27
2023-04-15T04:17:33.099Z,22.07
2023-04-15T04:20:01.271Z,21.90
2023-04-15T04:22:29.449Z,19.37
2023-04-15T04:24:59.389Z,19.00
2023-04-15T04:27:27.540Z,17.30
2023-04-15T04:29:57.028Z,18.73
2023-04-15T04:32:25.215Z,15.83
2023-04-15T04:34:53.351Z,16.27
2023-04-15T04:37:21.461Z,17.03
2023-04-15T04:39:49.628Z,15.80
2023-04-15T04:42:17.792Z,15.33
2023-04-15T04:44:46.411Z,15.20
2023-04-15T04:47:16.027Z,15.80
2023-04-15T04:49:44.189Z,15.57
2023-04-15T04:52:12.918Z,13.83
2023-04-15T04:54:41.060Z,14.10
2023-04-15T04:57:09.232Z,14.87
2023-04-15T04:59:38.082Z,13.57
2023-04-15T05:02:06.631Z,14.67
2023-04-15T05:04:37.214Z,12.93
2023-04-15T05:07:05.362Z,14.57
2023-04-15T05:09:36.172Z,13.90
2023-04-15T05:12:04.982Z,13.60
2023-04-15T05:14:33.309Z,13.10
2023-04-15T05:17:01.522Z,13.20
2023-04-15T05:19:29.671Z,14.87
2023-04-15T05:21:59.147Z,12.90
2023-04-15T05:24:27.399Z,11.87
2023-04-15T05:26:56.213Z,12.57
2023-04-15T05:29:24.488Z,13.27
2023-04-15T05:31:52.659Z,13.23
2023-04-15T05:34:20.787Z,13.00
2023-04-15T05:36:49.000Z,14.53
2023-04-15T05:39:18.444Z,14.23
2023-04-15T05:41:46.689Z,14.90
2023-04-15T05:44:14.858Z,15.10
2023-04-15T05:46:43.339Z,14.83
2023-04-15T05:49:12.036Z,13.80
2023-04-15T05:51:40.240Z,13.90
2023-04-15T05:54:08.393Z,13.30
2023-04-15T05:56:37.997Z,13.30
2023-04-15T05:59:06.620Z,14.90
2023-04-15T06:01:35.561Z,13.77
2023-04-15T06:04:03.758Z,13.90
2023-04-15T06:06:32.479Z,13.60
2023-04-15T06:09:00.789Z,13.00
2023-04-15T06:11:29.209Z,13.83
2023-04-15T06:13:59.042Z,14.20
2023-04-15T06:16:27.339Z,14.13
2023-04-15T06:18:55.471Z,13.50
2023-04-15T06:21:23.645Z,13.90
2023-04-15T06:23:51.850Z,13.13
2023-04-15T06:26:19.985Z,13.33
2023-04-15T06:28:48.231Z,14.00
2023-04-15T06:31:17.742Z,14.23
2023-04-15T06:33:45.973Z,12.50
2023-04-15T06:36:14.146Z,14.60
2023-04-15T06:38:42.339Z,14.40
2023-04-15T06:41:10.755Z,12.77
2023-04-15T06:43:39.350Z,14.17
2023-04-15T06:46:07.510Z,13.37
2023-04-15T06:48:37.262Z,12.97
2023-04-15T06:51:05.604Z,14.63
2023-04-15T06:53:33.918Z,14.03
2023-04-15T06:56:02.052Z,15.23
2023-04-15T06:58:30.201Z,14.40
2023-04-15T07:00:58.345Z,15.37
2023-04-15T07:03:27.110Z,14.00
2023-04-15T07:05:56.576Z,14.40
2023-04-15T07:08:25.626Z,17.20
2023-04-15T07:10:54.160Z,14.97
2023-04-15T07:13:22.636Z,16.67
2023-04-15T07:15:50.811Z,16.33
2023-04-15T07:18:18.951Z,15.40
2023-04-15T07:20:47.077Z,16.10
2023-04-15T07:23:16.606Z,16.50
2023-04-15T07:25:44.752Z,15.90
2023-04-15T07:28:12.885Z,16.87
2023-04-15T07:30:41.639Z,16.07
2023-04-15T07:33:10.039Z,16.10
2023-04-15T07:35:38.201Z,14.90
2023-04-15T07:38:06.890Z,16.30
2023-04-15T07:40:36.382Z,16.00
2023-04-15T07:43:04.623Z,18.03
2023-04-15T07:45:32.903Z,16.60
2023-04-15T07:48:01.778Z,15.90
2023-04-15T07:50:29.974Z,16.23
2023-04-15T07:52:58.445Z,18.33
2023-04-15T07:55:28.151Z,16.67
2023-04-15T07:57:57.763Z,19.40
2023-04-15T08:00:26.834Z,15.67
2023-04-15T08:02:57.412Z,16.87
2023-04-15T08:05:25.780Z,17.93
2023-04-15T08:07:54.043Z,16.13
2023-04-15T08:10:22.813Z,17.43
2023-04-15T08:12:54.245Z,18.30
2023-04-15T08:15:23.966Z,16.80
2023-04-15T08:17:52.264Z,18.47
2023-04-15T08:20:20.668Z,16.20
2023-04-15T08:22:52.563Z,19.30
2023-04-15T08:25:21.519Z,19.50
2023-04-15T08:27:49.709Z,18.10
2023-04-15T08:30:17.889Z,18.50
2023-04-15T08:32:48.136Z,19.07
2023-04-15T08:35:16.491Z,19.43
2023-04-15T08:37:44.624Z,19.23
2023-04-15T08:40:13.619Z,17.80
2023-04-15T08:42:45.655Z,17.47
2023-04-15T08:45:14.578Z,20.03
2023-04-15T08:47:44.590Z,19.60
2023-04-15T08:50:16.167Z,19.47
2023-04-15T08:52:44.428Z,19.20
2023-04-15T08:55:14.438Z,18.37
2023-04-15T08:57:42.600Z,18.83
2023-04-15T09:00:12.484Z,17.47
2023-04-15T09:02:41.517Z,18.80
2023-04-15T09:05:10.138Z,18.60
2023-04-15T09:07:39.593Z,16.77
2023-04-15T09:10:09.050Z,16.93
2023-04-15T09:12:37.579Z,18.60
2023-04-15T09:15:06.679Z,17.90
2023-04-15T09:17:35.629Z,18.00
2023-04-15T09:20:13.008Z,18.20
2023-04-15T09:22:43.226Z,17.37
2023-04-15T09:25:28.033Z,17.57
2023-04-15T09:27:57.520Z,17.60
2023-04-15T09:30:26.536Z,17.40
2023-04-15T09:32:56.711Z,16.70
2023-04-15T09:35:26.228Z,15.90
2023-04-15T09:38:03.936Z,18.30
2023-04-15T09:40:32.726Z,16.80
2023-04-15T09:43:01.978Z,17.67
2023-04-15T09:45:30.631Z,16.70
2023-04-15T09:47:59.738Z,16.30
2023-04-15T09:50:29.422Z,16.10
2023-04-15T09:52:59.649Z,16.20
2023-04-15T09:55:27.788Z,16.90
2023-04-15T09:57:55.925Z,17.97
2023-04-15T10:00:24.040Z,17.63
2023-04-15T10:02:53.296Z,17.17
2023-04-15T10:05:23.419Z,17.17
2023-04-15T10:07:51.681Z,18.07
2023-04-15T10:10:21.556Z,16.33
2023-04-15T10:12:50.888Z,16.00
2023-04-15T10:15:20.075Z,16.50
2023-04-15T10:17:51.383Z,17.20
2023-04-15T10:20:20.700Z,18.63
2023-04-15T10:22:49.744Z,16.40
2023-04-15T10:25:18.392Z,15.37
2023-04-15T10:27:49.509Z,14.70
2023-04-15T10:30:18.687Z,15.30
2023-04-15T10:32:47.402Z,17.23
2023-04-15T10:35:16.308Z,16.53
2023-04-15T10:37:44.459Z,16.23
2023-04-15T10:40:27.349Z,15.00
2023-04-15T10:42:57.387Z,15.93
2023-04-15T10:45:28.244Z,14.63
2023-04-15T10:47:58.142Z,14.90
2023-04-15T10:50:29.907Z,15.27
2023-04-15T10:52:58.561Z,14.47
2023-04-15T10:55:28.156Z,14.60
2023-04-15T10:58:01.476Z,14.87
2023-04-15T11:00:30.835Z,15.47
2023-04-15T11:03:01.273Z,15.00
2023-04-15T11:05:53.706Z,16.00
2023-04-15T11:08:54.621Z,14.20
2023-04-15T11:11:22.863Z,15.90
2023-04-15T11:13:54.203Z,14.00
2023-04-15T11:16:23.082Z,15.97
2023-04-15T11:18:55.948Z,17.00
2023-04-15T11:21:27.024Z,14.73
2023-04-15T11:23:55.145Z,15.37
2023-04-15T11:26:28.046Z,14.00
2023-04-15T11:28:59.775Z,14.00
2023-04-15T11:31:29.538Z,13.20
2023-04-15T11:33:59.906Z,14.93
2023-04-15T11:36:29.734Z,14.33
2023-04-15T11:38:59.781Z,13.60
2023-04-15T11:41:27.922Z,14.80
2023-04-15T11:43:57.454Z,14.07
2023-04-15T11:46:31.254Z,14.47
2023-04-15T11:49:00.214Z,13.47
2023-04-15T11:51:33.604Z,13.83
2023-04-15T11:54:01.923Z,14.00
2023-04-15T11:56:30.287Z,12.77
2023-04-15T11:59:00.518Z,16.40
2023-04-15T12:01:35.121Z,14.23
2023-04-15T12:04:04.570Z,13.27
2023-04-15T12:06:35.054Z,15.47
2023-04-15T12:09:09.310Z,13.97
2023-04-15T12:11:43.438Z,14.50
2023-04-15T12:14:17.020Z,14.20
2023-04-15T12:16:48.759Z,13.37
2023-04-15T12:19:23.521Z,15.70
2023-04-15T12:21:52.280Z,12.87
2023-04-15T12:24:23.243Z,13.60
2023-04-15T12:26:53.189Z,13.63
2023-04-15T12:29:29.016Z,12.37
2023-04-15T12:31:59.004Z,12.07
2023-04-15T12:34:29.504Z,12.40
2023-04-15T12:36:59.699Z,12.50
2023-04-15T12:39:31.206Z,14.43
2023-04-15T12:42:00.534Z,13.90
2023-04-15T12:44:30.250Z,12.73
2023-04-15T12:46:58.753Z,12.13
2023-04-15T12:49:27.642Z,12.33
2023-04-15T12:51:57.465Z,15.13
2023-04-15T12:54:25.595Z,12.13
2023-04-15T12:56:54.186Z,12.63
2023-04-15T12:59:24.051Z,12.07
2023-04-15T13:01:54.627Z,12.23
2023-04-15T13:04:23.525Z,12.53
2023-04-15T13:06:51.784Z,13.27
2023-04-15T13:09:19.928Z,11.10
2023-04-15T13:11:48.098Z,9.80
2023-04-15T13:14:16.346Z,10.90
2023-04-15T13:16:44.476Z,11.93
2023-04-15T13:19:14.332Z,11.10
2023-04-15T13:21:42.556Z,13.00
2023-04-15T13:24:11.767Z,11.13
2023-04-15T13:26:39.906Z,11.97
2023-04-15T13:29:08.114Z,11.30
2023-04-15T13:31:36.497Z,11.57
2023-04-15T13:34:04.960Z,10.23
2023-04-15T13:36:34.652Z,11.30
2023-04-15T13:39:03.262Z,10.47
2023-04-15T13:41:32.200Z,10.20
2023-04-15T13:44:00.588Z,10.77
2023-04-15T13:46:28.715Z,9.20
2023-04-15T13:48:57.686Z,9.10
2023-04-15T13:51:29.607Z,10.27
2023-04-15T13:53:59.225Z,9.23
2023-04-15T13:56:27.370Z,8.57
2023-04-15T13:58:58.912Z,8.60
2023-04-15T14:01:27.299Z,9.30
2023-04-15T14:03:55.794Z,7.90
2023-04-15T14:06:24.064Z,7.97
2023-04-15T14:08:53.004Z,8.57
2023-04-15T14:11:22.576Z,8.43
2023-04-15T14:13:50.711Z,7.30
2023-04-15T14:16:18.911Z,7.77
2023-04-15T14:18:47.140Z,7.63
2023-04-15T14:21:15.299Z,8.30
2023-04-15T14:23:43.870Z,6.93
2023-04-15T14:26:12.065Z,8.50
2023-04-15T14:28:42.847Z,7.67
2023-04-15T14:31:11.081Z,6.90
2023-04-15T14:33:39.314Z,7.63
2023-04-15T14:36:08.132Z,6.80
2023-04-15T14:38:38.454Z,6.80
2023-04-15T14:41:07.225Z,9.03
2023-04-15T14:43:35.861Z,7.40
2023-04-15T14:46:05.533Z,8.53
2023-04-15T14:48:33.721Z,8.30
2023-04-15T14:51:02.189Z,7.73
2023-04-15T14:53:30.366Z,7.70
2023-04-15T14:55:58.555Z,7.70
2023-04-15T14:58:35.389Z,6.90
2023-04-15T15:01:04.756Z,6.97
2023-04-15T15:03:33.316Z,6.93
2023-04-15T15:06:01.568Z,6.90
2023-04-15T15:08:30.053Z,7.03
2023-04-15T15:10:58.196Z,7.50
2023-04-15T15:13:26.377Z,6.40
2023-04-15T15:15:56.134Z,6.97
2023-04-15T15:18:25.507Z,7.23
2023-04-15T15:20:53.674Z,6.90
2023-04-15T15:23:22.008Z,6.67
2023-04-15T15:25:50.338Z,9.40
2023-04-15T15:28:18.507Z,8.80
2023-04-15T15:30:46.632Z,7.70
2023-04-15T15:33:16.128Z,7.37
2023-04-15T15:35:45.079Z,7.20
2023-04-15T15:38:13.529Z,6.13
2023-04-15T15:40:41.698Z,7.93
2023-04-15T15:43:09.930Z,7.60
2023-04-15T15:45:38.068Z,8.53
2023-04-15T15:48:07.428Z,8.10
2023-04-15T15:50:37.019Z,7.03
2023-04-15T15:53:05.353Z,7.23
2023-04-15T15:55:33.756Z,8.53
2023-04-15T15:58:01.873Z,7.80
2023-04-15T16:00:30.038Z,8.77
2023-04-15T16:05:29.392Z,9.07
2023-04-15T16:07:58.902Z,8.13
2023-04-15T16:10:27.603Z,8.60
2023-04-15T16:12:55.808Z,8.70
2023-04-15T16:15:24.253Z,8.27
2023-04-15T16:17:52.461Z,8.50
2023-04-15T16:20:20.669Z,9.80
2023-04-15T16:22:49.003Z,8.10
2023-04-15T16:25:18.917Z,8.23
2023-04-15T16:28:00.812Z,9.20
2023-04-15T16:30:31.574Z,8.47
2023-04-15T16:32:59.757Z,10.13
2023-04-15T16:35:28.398Z,8.87
2023-04-15T16:37:56.583Z,9.20
2023-04-15T16:40:26.567Z,9.40
2023-04-15T16:42:55.776Z,7.77
2023-04-15T16:45:23.912Z,8.87
2023-04-15T16:47:52.077Z,10.60
2023-04-15T16:50:20.466Z,11.73
2023-04-15T16:52:48.648Z,8.90
2023-04-15T16:55:16.778Z,8.33
2023-04-15T16:58:01.186Z,9.23
2023-04-15T17:00:31.408Z,9.07
2023-04-15T17:03:00.230Z,8.97
2023-04-15T17:05:29.162Z,9.20
2023-04-15T17:07:57.406Z,8.60
2023-04-15T17:10:25.827Z,10.20
2023-04-15T17:12:56.879Z,8.30
2023-04-15T17:15:25.452Z,9.10
2023-04-15T17:17:53.794Z,7.70
2023-04-15T17:20:22.054Z,9.20
2023-04-15T17:22:50.362Z,9.40
2023-04-15T17:25:19.416Z,8.00
2023-04-15T17:27:47.720Z,7.40
2023-04-15T17:30:17.449Z,7.67
2023-04-15T17:32:45.862Z,7.87
2023-04-15T17:35:14.066Z,7.73
2023-04-15T17:37:42.204Z,8.07
2023-04-15T17:40:11.356Z,8.00
2023-04-15T17:42:39.531Z,7.03
2023-04-15T17:45:08.951Z,7.37
2023-04-15T17:47:38.488Z,8.10
2023-04-15T17:50:08.381Z,7.07
2023-04-15T17:52:36.649Z,8.07
2023-04-15T17:55:05.281Z,8.07
2023-04-15T17:57:33.446Z,7.93
2023-04-15T18:00:01.730Z,7.77
2023-04-15T18:02:29.984Z,7.37
2023-04-15T18:04:59.622Z,8.30
2023-04-15T18:07:27.878Z,9.10
2023-04-15T18:09:56.360Z,9.17
2023-04-15T18:12:24.580Z,11.30
2023-04-15T18:14:52.814Z,10.40
2023-04-15T18:17:21.226Z,12.03
2023-04-15T18:19:49.355Z,11.33
2023-04-15T18:22:18.862Z,10.23
2023-04-15T18:24:46.986Z,10.80
2023-04-15T18:27:15.134Z,11.13
2023-04-15T18:29:44.015Z,9.53
2023-04-15T18:32:12.152Z,9.47
2023-04-15T18:34:42.775Z,9.03
2023-04-15T18:37:11.087Z,8.03
2023-04-15T18:39:40.631Z,7.37
2023-04-15T18:42:08.797Z,7.83
2023-04-15T18:44:36.954Z,6.27
2023-04-15T18:47:05.312Z,7.03
2023-04-15T18:49:33.997Z,7.00
2023-04-15T18:52:02.391Z,7.33
2023-04-15T18:54:30.690Z,7.00
2023-04-15T18:57:00.323Z,9.60
2023-04-15T18:59:30.074Z,8.23
2023-04-15T19:01:59.301Z,8.10
2023-04-15T19:04:28.810Z,7.87
2023-04-15T19:06:58.773Z,9.30
2023-04-15T19:09:27.256Z,8.10
2023-04-15T19:11:56.807Z,8.27
2023-04-15T19:14:26.392Z,9.97
2023-04-15T19:16:54.615Z,9.27
2023-04-15T19:19:22.788Z,9.07
2023-04-15T19:21:51.238Z,9.40
2023-04-15T19:24:20.016Z,10.33
2023-04-15T19:26:50.064Z,9.70
2023-04-15T19:29:18.645Z,12.23
2023-04-15T19:31:48.228Z,12.20
2023-04-15T19:34:16.589Z,12.80
2023-04-15T19:36:44.793Z,12.90
2023-04-15T19:39:13.564Z,12.40
2023-04-15T19:41:41.851Z,11.73
2023-04-15T19:44:12.729Z,13.87
2023-04-15T19:46:41.058Z,14.20
2023-04-15T19:49:10.798Z,13.93
2023-04-15T19:51:38.951Z,12.73
2023-04-15T19:54:07.121Z,15.13
2023-04-15T19:56:35.408Z,14.27
2023-04-15T19:59:03.891Z,15.07
2023-04-15T20:01:32.882Z,14.40
2023-04-15T20:04:03.438Z,12.93
2023-04-15T20:06:33.074Z,12.90
2023-04-15T20:09:02.026Z,14.97
2023-04-15T20:12:46.256Z,15.63
2023-04-15T20:14:18.519Z,14.83
2023-04-15T20:16:46.748Z,14.73
2023-04-15T20:19:14.873Z,16.03
2023-04-15T20:21:44.461Z,15.70
2023-04-15T20:24:12.696Z,15.50
2023-04-15T20:26:40.823Z,15.67
2023-04-15T20:29:09.029Z,16.90
2023-04-15T20:31:37.452Z,17.67
2023-04-15T20:34:05.767Z,17.70
2023-04-15T20:36:34.303Z,16.80
2023-04-15T20:39:04.162Z,17.27
2023-04-15T20:41:32.589Z,15.73
2023-04-15T20:44:00.738Z,16.07
2023-04-15T20:46:29.111Z,15.03
2023-04-15T20:48:57.270Z,14.63
2023-04-15T20:51:27.148Z,14.53
2023-04-15T20:53:55.567Z,13.50
2023-04-15T20:56:25.112Z,13.50
2023-04-15T20:58:53.370Z,14.63
2023-04-15T21:01:21.632Z,13.30
2023-04-15T21:03:49.996Z,13.40
2023-04-15T21:06:18.239Z,12.23
2023-04-15T21:08:46.386Z,13.03
2023-04-15T21:11:25.679Z,12.57
2023-04-15T21:14:07.671Z,12.43
2023-04-15T21:16:35.903Z,13.57
2023-04-15T21:19:04.516Z,14.87
2023-04-15T21:21:32.936Z,13.90
2023-04-15T21:24:01.178Z,13.90
2023-04-15T21:26:29.326Z,16.10
2023-04-15T21:28:57.566Z,14.77
2023-04-15T21:31:27.058Z,16.57
2023-04-15T21:33:55.210Z,14.70
2023-04-15T21:36:23.470Z,16.57
2023-04-15T21:38:51.751Z,17.00
2023-04-15T21:41:19.989Z,16.87
2023-04-15T21:43:48.154Z,16.70
2023-04-15T21:46:20.847Z,16.20
2023-04-15T21:48:54.834Z,17.50
2023-04-15T21:51:23.001Z,16.20
2023-04-15T21:53:52.547Z,17.87
2023-04-15T21:56:23.145Z,17.27
2023-04-15T21:58:52.079Z,19.57
2023-04-15T22:01:20.216Z,17.60
2023-04-15T22:03:48.616Z,16.60
2023-04-15T22:06:18.361Z,16.50
2023-04-15T22:08:56.251Z,16.80
2023-04-15T22:11:28.229Z,18.40
2023-04-15T22:13:57.635Z,18.30
2023-04-15T22:16:26.680Z,18.47
2023-04-15T22:18:55.243Z,18.80
2023-04-15T22:21:24.963Z,18.33
2023-04-15T22:24:37.274Z,17.37
2023-04-15T22:26:42.761Z,16.33
2023-04-15T22:29:11.099Z,15.40
2023-04-15T22:31:39.311Z,14.10
2023-04-15T22:34:08.079Z,14.30
2023-04-15T22:36:37.783Z,12.73
2023-04-15T22:39:06.273Z,14.27
2023-04-15T22:41:34.824Z,13.47
2023-04-15T22:44:02.939Z,14.20
2023-04-15T22:46:31.256Z,13.87
2023-04-15T22:48:59.500Z,15.83
2023-04-15T22:51:28.086Z,14.80
2023-04-15T22:53:57.622Z,13.60
2023-04-15T22:56:26.111Z,15.70
2023-04-15T22:58:54.359Z,13.67
2023-04-15T23:01:22.527Z,13.93
2023-04-15T23:03:55.877Z,13.60
2023-04-15T23:06:25.880Z,14.17
2023-04-15T23:08:54.606Z,13.17
2023-04-15T23:11:24.096Z,15.07
2023-04-15T23:13:53.059Z,13.90
2023-04-15T23:16:21.270Z,14.63
2023-04-15T23:18:49.547Z,15.90
2023-04-15T23:21:17.960Z,17.90
2023-04-15T23:23:46.085Z,19.50
2023-04-15T23:26:14.319Z,17.20
2023-04-15T23:28:43.810Z,16.47
2023-04-15T23:31:12.142Z,21.10
2023-04-15T23:33:40.389Z,19.60
2023-04-15T23:36:08.732Z,20.27
2023-04-15T23:38:37.247Z,17.40
2023-04-15T23:41:05.602Z,17.73
2023-04-15T23:43:33.796Z,18.10
2023-04-15T23:46:03.314Z,21.43
2023-04-15T23:48:32.656Z,17.30
2023-04-15T23:51:01.619Z,18.03
2023-04-15T23:53:30.888Z,17.93
2023-04-15T23:55:58.996Z,17.33
2023-04-15T23:58:27.128Z,17.20
